Portada
METAR-TAF:

METAR-TAF

Aeroports :

Istre, França

latitud: 43-31N, longitud: 004-56E, altitud: 23 m

Observació

L'informe es va fer fa 29 minuts, a les 15:30 UTC
Vent 18 kt del Nord
Temperatura 9°C
Humitat 49%
Pressió 1020 hPa
Visibilitat 10 km o més
sense núvols per sota de 1500 mi sense presència de cumulonimbus.

METAR: LFMI 101530Z AUTO 36018KT CAVOK 09/M01 Q1020 BECMG 36005KT

Hora: 16:59 (15:59 UTC)

Pronòstic

L'informe es va fer fa 1 hora i 59 minuts, a les 14:00 UTC
Pronòstic vàlid del 10 a les 15 UTC al 11 a les 15 UTC
Vent 15 kt del Nord/Nord-Oest amb ràfegues de 30 kt
Visibilitat 10 km o més
sense núvols per sota de 1500 mi sense presència de cumulonimbus.
Evolucionant progressivament
l' 10 a les 17 UTC al 10 a les 19 UTC
Vent 5 kt del Nord
Temporalment
l' 11 a les 10 UTC al 11 a les 15 UTC
Cel ennuvolat a una alçada de 2000 ft
pluja

TAF: LFMI 101400Z 1015/1115 34015G30KT CAVOK BECMG 1017/1019 36005KT TEMPO 1110/1115 RA BKN020

Observacions i pronòstics meteorològics de més de 4000 aeroports (METAR i TAF).

Les estacions disponibles són els punts grocs i vermells al mapa.

Posi el ratolí al punt desitjat per veure el nom de l'estació.

Feu clic per veure les observacions i els pronòstics meteorològics.

Per canviar el mapa: feu clic els botons verds amb una creu de color negre per apropar; al botó verd amb un guió per allunyar la imatge; o en les fletxes verdes per a mapes adjacents.


METAR-TAF: